Weather at Adana Sağlık Heliport

Public forecast

Using degrees Celsius for public forecast. Weather courtesy of forecast.io.

Closest aviation weather report (METAR) to Adana Sağlık Heliport

Closest report is Adana Şakirpaşa Airport, 3.3 nm (6.1 km) WSW.

2024/05/26 09:50 (retrieved 19 minutes ago)

LTAF 260950Z 14013KT 9999 TS FEW025CB SCT030 23/15 Q1011 BECMG TL1050 VRB02KT NSW

Closest aviation forecast (TAF) to Adana Sağlık Heliport

Closest forecast is Adana Şakirpaşa Airport, 3.3 nm (6.1 km) WSW.

2024/05/26 06:00 (retrieved 4 hours ago)

TAF LTAF 260440Z 2606/2706 VRB02KT 9999 SCT035 TEMPO 2610/2614 BKN035 BECMG 2614/2617 CAVOK BECMG 2620/2622 SCT030 PROB30 TEMPO 2703/2706 TSRA FEW020CB BKN030